createdAt,value
2022-09-01T00:01:54.433Z,24.50
2022-09-01T00:04:27.041Z,24.40
2022-09-01T00:06:56.358Z,24.40
2022-09-01T00:09:24.689Z,24.50
2022-09-01T00:11:55.224Z,24.40
2022-09-01T00:14:29.948Z,24.40
2022-09-01T00:16:58.985Z,24.50
2022-09-01T00:19:27.189Z,24.40
2022-09-01T00:21:55.376Z,24.40
2022-09-01T00:24:26.003Z,24.50
2022-09-01T00:26:55.859Z,24.40
2022-09-01T00:29:24.965Z,24.40
2022-09-01T00:31:53.111Z,24.40
2022-09-01T00:34:21.484Z,24.40
2022-09-01T00:36:49.582Z,24.50
2022-09-01T00:39:17.793Z,24.40
2022-09-01T00:41:47.262Z,24.40
2022-09-01T00:44:18.950Z,24.40
2022-09-01T00:46:51.094Z,24.40
2022-09-01T00:49:28.217Z,24.40
2022-09-01T00:51:57.831Z,24.40
2022-09-01T00:54:27.247Z,24.40
2022-09-01T00:56:57.555Z,24.40
2022-09-01T00:59:27.938Z,24.40
2022-09-01T01:01:56.484Z,24.40
2022-09-01T01:04:24.770Z,24.40
2022-09-01T01:06:58.829Z,24.40
2022-09-01T01:09:27.830Z,24.40
2022-09-01T01:12:00.203Z,24.40
2022-09-01T01:14:32.395Z,24.40
2022-09-01T01:17:01.160Z,24.40
2022-09-01T01:19:52.872Z,24.40
2022-09-01T01:22:42.338Z,24.40
2022-09-01T01:25:12.803Z,24.40
2022-09-01T01:27:42.867Z,24.40
2022-09-01T01:30:12.596Z,24.40
2022-09-01T01:32:43.804Z,24.40
2022-09-01T01:35:14.952Z,24.40
2022-09-01T01:37:45.854Z,24.40
2022-09-01T01:40:17.264Z,24.40
2022-09-01T01:42:46.009Z,24.40
2022-09-01T01:45:17.182Z,24.40
2022-09-01T01:47:51.665Z,24.40
2022-09-01T01:50:20.346Z,24.40
2022-09-01T01:52:48.612Z,24.30
2022-09-01T01:55:28.792Z,24.30
2022-09-01T01:57:58.787Z,24.40
2022-09-01T02:00:30.819Z,24.40
2022-09-01T02:02:59.652Z,24.30
2022-09-01T02:05:28.952Z,24.30
2022-09-01T02:07:59.505Z,24.30
2022-09-01T02:10:32.044Z,24.30
2022-09-01T02:13:03.613Z,24.30
2022-09-01T02:15:35.117Z,24.30
2022-09-01T02:18:05.076Z,24.30
2022-09-01T02:20:33.992Z,24.30
2022-09-01T02:23:10.545Z,24.30
2022-09-01T02:26:14.531Z,24.30
2022-09-01T02:28:36.819Z,24.30
2022-09-01T02:31:06.017Z,24.30
2022-09-01T02:33:34.292Z,24.30
2022-09-01T02:36:05.351Z,24.30
2022-09-01T02:38:34.542Z,24.30
2022-09-01T02:41:04.309Z,24.30
2022-09-01T02:43:33.788Z,24.30
2022-09-01T02:46:02.774Z,24.30
2022-09-01T02:48:37.186Z,24.30
2022-09-01T02:51:08.379Z,24.30
2022-09-01T02:53:36.936Z,24.30
2022-09-01T02:56:09.648Z,24.30
2022-09-01T02:58:42.094Z,24.30
2022-09-01T03:01:13.257Z,24.30
2022-09-01T03:03:41.646Z,24.20
2022-09-01T03:06:10.349Z,24.30
2022-09-01T03:08:39.727Z,24.20
2022-09-01T03:11:13.243Z,24.20
2022-09-01T03:13:42.040Z,24.20
2022-09-01T03:16:10.582Z,24.30
2022-09-01T03:18:38.871Z,24.20
2022-09-01T03:21:09.593Z,24.30
2022-09-01T03:23:38.037Z,24.20
2022-09-01T03:26:06.564Z,24.20
2022-09-01T03:28:37.675Z,24.20
2022-09-01T03:31:05.851Z,24.20
2022-09-01T03:33:34.361Z,24.20
2022-09-01T03:36:02.671Z,24.20
2022-09-01T03:38:32.053Z,24.20
2022-09-01T03:41:01.975Z,24.30
2022-09-01T03:43:36.057Z,24.20
2022-09-01T03:46:08.041Z,24.20
2022-09-01T03:48:36.432Z,24.20
2022-09-01T03:51:05.061Z,24.20
2022-09-01T03:53:36.994Z,24.20
2022-09-01T03:56:07.320Z,24.20
2022-09-01T03:58:35.506Z,24.20
2022-09-01T04:01:06.331Z,24.20
2022-09-01T04:03:40.398Z,24.20
2022-09-01T04:06:10.631Z,24.20
2022-09-01T04:08:39.401Z,24.20
2022-09-01T04:11:13.964Z,24.20
2022-09-01T04:13:42.585Z,24.20
2022-09-01T04:16:34.916Z,24.20
2022-09-01T04:19:09.247Z,24.20
2022-09-01T04:21:38.358Z,24.20
2022-09-01T04:24:09.033Z,24.20
2022-09-01T04:26:38.480Z,24.20
2022-09-01T04:29:09.200Z,24.20
2022-09-01T04:31:40.189Z,24.20
2022-09-01T04:34:13.903Z,24.20
2022-09-01T04:36:45.068Z,24.20
2022-09-01T04:39:14.151Z,24.20
2022-09-01T04:41:46.235Z,24.20
2022-09-01T04:44:18.971Z,24.20
2022-09-01T04:46:50.599Z,24.10
2022-09-01T04:49:22.314Z,24.10
2022-09-01T04:51:53.929Z,24.10
2022-09-01T04:54:24.328Z,24.10
2022-09-01T04:56:52.860Z,24.10
2022-09-01T04:59:22.214Z,24.10
2022-09-01T05:02:00.393Z,24.10
2022-09-01T05:04:33.687Z,24.10
2022-09-01T05:07:02.724Z,24.10
2022-09-01T05:09:36.850Z,24.10
2022-09-01T05:12:31.108Z,24.10
2022-09-01T05:14:59.222Z,24.10
2022-09-01T05:17:29.116Z,24.10
2022-09-01T05:19:58.068Z,24.10
2022-09-01T05:22:27.053Z,24.10
2022-09-01T05:25:03.696Z,24.10
2022-09-01T05:27:32.450Z,24.10
2022-09-01T05:30:01.240Z,24.10
2022-09-01T05:32:33.567Z,24.10
2022-09-01T05:35:02.299Z,24.10
2022-09-01T05:37:30.836Z,24.10
2022-09-01T05:39:59.132Z,24.10
2022-09-01T05:42:28.604Z,24.10
2022-09-01T05:44:58.607Z,24.10
2022-09-01T05:47:27.165Z,24.10
2022-09-01T05:49:58.503Z,24.10
2022-09-01T05:52:27.300Z,24.10
2022-09-01T05:55:00.206Z,24.10
2022-09-01T05:57:36.853Z,24.10
2022-09-01T06:00:11.219Z,24.10
2022-09-01T06:02:41.166Z,24.10
2022-09-01T06:05:14.058Z,24.10
2022-09-01T06:07:42.953Z,24.10
2022-09-01T06:10:14.796Z,24.10
2022-09-01T06:12:45.278Z,24.00
2022-09-01T06:15:18.578Z,24.00
2022-09-01T06:17:50.849Z,24.00
2022-09-01T06:20:22.925Z,24.00
2022-09-01T06:22:52.571Z,24.00
2022-09-01T06:25:21.687Z,24.00
2022-09-01T06:27:49.851Z,24.00
2022-09-01T06:30:23.789Z,24.10
2022-09-01T06:32:57.789Z,24.00
2022-09-01T06:35:29.964Z,24.00
2022-09-01T06:38:00.037Z,24.00
2022-09-01T06:40:42.499Z,24.10
2022-09-01T06:43:16.180Z,24.00
2022-09-01T06:45:54.285Z,24.00
2022-09-01T06:48:24.536Z,24.00
2022-09-01T06:51:20.854Z,24.00
2022-09-01T06:53:56.539Z,24.00
2022-09-01T06:59:16.869Z,24.00
2022-09-01T07:01:51.573Z,24.00
2022-09-01T07:04:25.381Z,24.00
2022-09-01T07:07:02.724Z,24.00
2022-09-01T07:10:23.387Z,24.00
2022-09-01T07:13:06.313Z,24.00
2022-09-01T07:18:26.210Z,24.00
2022-09-01T07:21:38.866Z,24.00
2022-09-01T07:24:07.760Z,24.00
2022-09-01T07:26:35.376Z,24.00
2022-09-01T07:34:46.114Z,24.00
2022-09-01T07:38:47.826Z,24.00
2022-09-01T07:39:57.314Z,24.00
2022-09-01T07:42:59.195Z,24.00
2022-09-01T07:49:03.070Z,24.00
2022-09-01T07:51:50.106Z,24.00
2022-09-01T07:54:23.771Z,24.00
2022-09-01T07:56:54.789Z,24.00
2022-09-01T07:59:23.386Z,24.00
2022-09-01T08:01:58.033Z,24.00
2022-09-01T08:04:26.653Z,24.00
2022-09-01T08:06:56.069Z,24.00
2022-09-01T08:09:35.083Z,24.00
2022-09-01T08:12:09.032Z,24.00
2022-09-01T08:14:46.656Z,24.10
2022-09-01T08:17:18.225Z,24.00
2022-09-01T08:20:09.291Z,24.10
2022-09-01T08:23:03.373Z,24.00
2022-09-01T08:25:34.620Z,24.00
2022-09-01T08:28:04.740Z,24.00
2022-09-01T08:30:34.212Z,24.00
2022-09-01T08:33:10.733Z,24.00
2022-09-01T08:35:41.583Z,24.10
2022-09-01T08:38:10.152Z,24.00
2022-09-01T08:40:38.720Z,24.00
2022-09-01T08:43:15.685Z,24.00
2022-09-01T08:45:47.466Z,24.00
2022-09-01T08:51:15.068Z,24.10
2022-09-01T08:54:05.235Z,24.10
2022-09-01T08:56:36.374Z,24.10
2022-09-01T08:59:07.084Z,24.10
2022-09-01T09:02:27.829Z,24.10
2022-09-01T09:05:01.994Z,24.10
2022-09-01T09:07:42.373Z,24.10
2022-09-01T09:10:12.511Z,24.10
2022-09-01T09:12:51.287Z,24.10
2022-09-01T09:15:25.565Z,24.10
2022-09-01T09:18:00.286Z,24.10
2022-09-01T09:20:28.858Z,24.10
2022-09-01T09:22:59.637Z,24.10
2022-09-01T09:25:29.741Z,24.10
2022-09-01T09:28:01.523Z,24.10
2022-09-01T09:30:31.521Z,24.10
2022-09-01T09:35:54.199Z,24.10
2022-09-01T09:38:29.121Z,24.10
2022-09-01T09:41:20.095Z,24.10
2022-09-01T09:43:52.332Z,24.10
2022-09-01T09:46:27.465Z,24.10
2022-09-01T09:49:10.012Z,24.10
2022-09-01T09:51:38.354Z,24.10
2022-09-01T09:54:14.855Z,24.10
2022-09-01T09:56:44.486Z,24.10
2022-09-01T09:59:34.151Z,24.10
2022-09-01T10:02:27.976Z,24.10
2022-09-01T10:04:57.207Z,24.10
2022-09-01T10:07:30.973Z,24.10
2022-09-01T10:10:02.083Z,24.10
2022-09-01T10:12:30.355Z,24.10
2022-09-01T10:15:04.676Z,24.10
2022-09-01T10:17:38.533Z,24.10
2022-09-01T10:20:12.089Z,24.20
2022-09-01T10:22:40.343Z,24.10
2022-09-01T10:25:10.631Z,24.20
2022-09-01T10:27:40.427Z,24.20
2022-09-01T10:30:13.937Z,24.20
2022-09-01T10:32:54.934Z,24.20
2022-09-01T10:35:24.895Z,24.20
2022-09-01T10:37:53.065Z,24.20
2022-09-01T10:40:35.605Z,24.20
2022-09-01T10:43:27.336Z,24.20
2022-09-01T10:45:58.862Z,24.20
2022-09-01T10:48:46.230Z,24.20
2022-09-01T10:51:51.427Z,24.20
2022-09-01T10:54:56.037Z,24.20
2022-09-01T10:57:43.365Z,24.20
2022-09-01T11:03:57.997Z,24.20
2022-09-01T11:07:17.881Z,24.20
2022-09-01T11:10:12.143Z,24.20
2022-09-01T11:13:27.269Z,24.20
2022-09-01T11:15:55.458Z,24.20
2022-09-01T11:18:29.548Z,24.20
2022-09-01T11:21:07.577Z,24.20
2022-09-01T11:23:35.726Z,24.20
2022-09-01T11:26:24.466Z,24.10
2022-09-01T11:28:52.681Z,24.10
2022-09-01T11:31:24.422Z,24.10
2022-09-01T11:33:57.573Z,24.10
2022-09-01T11:36:30.097Z,24.10
2022-09-01T11:39:04.165Z,24.10
2022-09-01T11:41:35.336Z,24.10
2022-09-01T11:44:05.156Z,24.20
2022-09-01T11:46:34.860Z,24.10
2022-09-01T11:49:06.661Z,24.10
2022-09-01T11:51:45.922Z,24.10
2022-09-01T11:54:14.189Z,24.20
2022-09-01T11:56:42.352Z,24.10
2022-09-01T11:59:10.546Z,24.10
2022-09-01T12:01:39.312Z,24.10
2022-09-01T12:04:22.319Z,24.10
2022-09-01T12:06:59.658Z,24.10
2022-09-01T12:09:37.898Z,24.10
2022-09-01T12:12:07.019Z,24.10
2022-09-01T12:14:55.103Z,24.10
2022-09-01T12:17:23.527Z,24.10
2022-09-01T12:19:51.867Z,24.10
2022-09-01T12:22:22.369Z,24.10
2022-09-01T12:24:51.748Z,24.10
2022-09-01T12:27:20.286Z,24.20
2022-09-01T12:29:50.719Z,24.20
2022-09-01T12:32:19.741Z,24.20
2022-09-01T12:34:49.129Z,24.10
2022-09-01T12:37:24.328Z,24.20
2022-09-01T12:39:54.448Z,24.20
2022-09-01T12:42:28.331Z,24.20
2022-09-01T12:44:57.663Z,24.20
2022-09-01T12:47:50.964Z,24.20
2022-09-01T12:50:44.834Z,24.20
2022-09-01T12:53:25.784Z,24.20
2022-09-01T12:56:03.298Z,24.20
2022-09-01T12:58:31.953Z,24.20
2022-09-01T13:01:02.644Z,24.20
2022-09-01T13:03:31.004Z,24.20
2022-09-01T13:06:03.047Z,24.30
2022-09-01T13:08:33.852Z,24.30
2022-09-01T13:11:04.209Z,24.20
2022-09-01T13:13:32.454Z,24.20
2022-09-01T13:16:01.627Z,24.20
2022-09-01T13:18:30.371Z,24.30
2022-09-01T13:20:59.001Z,24.30
2022-09-01T13:23:27.237Z,24.20
2022-09-01T13:25:58.963Z,24.20
2022-09-01T13:28:27.115Z,24.20
2022-09-01T13:36:52.121Z,24.30
2022-09-01T13:39:21.271Z,24.30
2022-09-01T13:41:50.793Z,24.30
2022-09-01T13:44:19.427Z,24.30
2022-09-01T13:49:44.962Z,24.30
2022-09-01T13:52:24.169Z,24.30
2022-09-01T13:54:52.559Z,24.30
2022-09-01T13:57:22.122Z,24.30
2022-09-01T13:59:50.290Z,24.30
2022-09-01T14:02:18.500Z,24.30
2022-09-01T14:04:47.409Z,24.30
2022-09-01T14:07:16.440Z,24.30
2022-09-01T14:09:44.563Z,24.30
2022-09-01T14:12:12.715Z,24.30
2022-09-01T14:17:30.462Z,24.30
2022-09-01T14:19:58.615Z,24.30
2022-09-01T14:22:26.710Z,24.30
2022-09-01T14:24:54.944Z,24.30
2022-09-01T14:27:23.040Z,24.20
2022-09-01T14:29:55.046Z,24.30
2022-09-01T14:32:27.075Z,24.30
2022-09-01T14:34:55.525Z,24.30
2022-09-01T14:37:23.713Z,24.30
2022-09-01T14:39:51.855Z,24.30
2022-09-01T14:42:20.118Z,24.20
2022-09-01T14:44:48.432Z,24.30
2022-09-01T14:47:19.889Z,24.20
2022-09-01T14:49:49.125Z,24.30
2022-09-01T14:52:17.848Z,24.30
2022-09-01T14:54:46.183Z,24.30
2022-09-01T14:57:36.598Z,24.20
2022-09-01T15:00:03.473Z,24.20
2022-09-01T15:02:33.350Z,24.20
2022-09-01T15:05:01.587Z,24.20
2022-09-01T15:07:29.776Z,24.20
2022-09-01T15:09:58.886Z,24.20
2022-09-01T15:12:30.831Z,24.20
2022-09-01T15:14:59.000Z,24.20
2022-09-01T15:17:27.217Z,24.20
2022-09-01T15:20:16.757Z,24.20
2022-09-01T15:22:44.860Z,24.20
2022-09-01T15:25:12.979Z,24.20
2022-09-01T15:27:41.531Z,24.20
2022-09-01T15:30:15.616Z,24.20
2022-09-01T15:32:43.933Z,24.20
2022-09-01T15:35:13.684Z,24.20
2022-09-01T15:37:41.821Z,24.20
2022-09-01T15:40:10.742Z,24.20
2022-09-01T15:42:39.053Z,24.20
2022-09-01T15:45:08.748Z,24.20
2022-09-01T15:47:38.319Z,24.20
2022-09-01T15:50:08.381Z,24.20
2022-09-01T15:52:50.968Z,24.20
2022-09-01T15:55:20.222Z,24.10
2022-09-01T15:57:48.388Z,24.20
2022-09-01T16:00:17.017Z,24.20
2022-09-01T16:02:45.661Z,24.20
2022-09-01T16:05:13.851Z,24.20
2022-09-01T16:07:42.490Z,24.20
2022-09-01T16:10:12.996Z,24.20
2022-09-01T16:12:43.980Z,24.20
2022-09-01T16:15:13.583Z,24.20
2022-09-01T16:17:52.722Z,24.20
2022-09-01T16:20:21.728Z,24.20
2022-09-01T16:22:53.746Z,24.20
2022-09-01T16:25:27.693Z,24.20
2022-09-01T16:27:56.281Z,24.20
2022-09-01T16:30:28.308Z,24.20
2022-09-01T16:32:58.970Z,24.20
2022-09-01T16:35:44.669Z,24.20
2022-09-01T16:38:16.566Z,24.10
2022-09-01T16:40:48.364Z,24.10
2022-09-01T16:43:19.382Z,24.10
2022-09-01T16:45:51.974Z,24.10
2022-09-01T16:48:22.893Z,24.10
2022-09-01T16:50:54.656Z,24.20
2022-09-01T16:53:36.893Z,24.20
2022-09-01T16:56:08.500Z,24.10
2022-09-01T16:58:49.053Z,24.20
2022-09-01T17:01:27.311Z,24.10
2022-09-01T17:03:59.320Z,24.10
2022-09-01T17:06:31.896Z,24.10
2022-09-01T17:09:08.059Z,24.10
2022-09-01T17:11:40.454Z,24.10
2022-09-01T17:14:08.862Z,24.10
2022-09-01T17:16:40.773Z,24.10
2022-09-01T17:19:10.418Z,24.10
2022-09-01T17:21:41.789Z,24.10
2022-09-01T17:24:14.914Z,24.10
2022-09-01T17:26:50.791Z,24.10
2022-09-01T17:29:23.274Z,24.10
2022-09-01T17:31:58.054Z,24.10
2022-09-01T17:34:31.803Z,24.10
2022-09-01T17:37:06.438Z,24.10
2022-09-01T17:39:40.513Z,24.10
2022-09-01T17:42:15.010Z,24.10
2022-09-01T17:44:46.572Z,24.10
2022-09-01T17:47:19.585Z,24.10
2022-09-01T17:49:51.862Z,24.10
2022-09-01T17:52:23.896Z,24.10
2022-09-01T17:54:54.901Z,24.10
2022-09-01T17:57:28.638Z,24.10
2022-09-01T17:59:59.617Z,24.10
2022-09-01T18:02:41.553Z,24.10
2022-09-01T18:05:10.637Z,24.10
2022-09-01T18:08:07.353Z,24.10
2022-09-01T18:10:39.397Z,24.10
2022-09-01T18:13:11.511Z,24.10
2022-09-01T18:15:44.499Z,24.00
2022-09-01T18:18:34.036Z,24.00
2022-09-01T18:21:04.827Z,24.00
2022-09-01T18:23:33.727Z,24.00
2022-09-01T18:26:07.152Z,24.00
2022-09-01T18:28:38.520Z,24.00
2022-09-01T18:31:11.394Z,24.00
2022-09-01T18:33:42.032Z,24.00
2022-09-01T18:36:17.150Z,24.00
2022-09-01T18:38:47.362Z,24.00
2022-09-01T18:41:29.637Z,24.00
2022-09-01T18:44:03.481Z,24.00
2022-09-01T18:46:35.067Z,23.90
2022-09-01T18:49:09.257Z,24.00
2022-09-01T18:51:46.594Z,24.00
2022-09-01T18:54:17.251Z,24.00
2022-09-01T18:56:48.573Z,24.00
2022-09-01T18:59:37.046Z,24.00
2022-09-01T19:02:11.202Z,24.00
2022-09-01T19:04:41.096Z,24.00
2022-09-01T19:07:14.172Z,24.00
2022-09-01T19:09:45.306Z,23.90
2022-09-01T19:12:21.696Z,23.90
2022-09-01T19:14:56.635Z,23.90
2022-09-01T19:17:55.831Z,23.90
2022-09-01T19:20:24.933Z,23.90
2022-09-01T19:22:56.390Z,24.00
2022-09-01T19:25:37.677Z,24.00
2022-09-01T19:28:12.949Z,23.90
2022-09-01T19:30:44.781Z,24.00
2022-09-01T19:33:17.430Z,23.90
2022-09-01T19:35:46.655Z,24.00
2022-09-01T19:38:18.890Z,23.90
2022-09-01T19:40:48.016Z,23.90
2022-09-01T19:43:18.142Z,23.90
2022-09-01T19:45:57.178Z,23.90
2022-09-01T19:48:28.201Z,23.90
2022-09-01T19:50:57.663Z,23.90
2022-09-01T19:53:33.866Z,23.90
2022-09-01T19:56:05.716Z,23.90
2022-09-01T19:58:41.307Z,23.90
2022-09-01T20:01:12.634Z,23.90
2022-09-01T20:03:41.777Z,23.90
2022-09-01T20:06:11.505Z,23.90
2022-09-01T20:08:42.612Z,23.90
2022-09-01T20:11:12.051Z,23.90
2022-09-01T20:13:47.390Z,23.90
2022-09-01T20:16:23.909Z,23.90
2022-09-01T20:18:54.746Z,23.90
2022-09-01T20:21:23.034Z,23.90
2022-09-01T20:23:54.373Z,23.90
2022-09-01T20:26:26.862Z,23.90
2022-09-01T20:28:59.063Z,23.90
2022-09-01T20:31:30.199Z,23.90
2022-09-01T20:34:01.101Z,23.90
2022-09-01T20:36:32.510Z,23.90
2022-09-01T20:39:21.652Z,23.90
2022-09-01T20:41:52.662Z,23.80
2022-09-01T20:44:24.771Z,23.90
2022-09-01T20:46:55.218Z,23.80
2022-09-01T20:49:23.396Z,23.90
2022-09-01T20:51:54.914Z,23.80
2022-09-01T20:54:30.391Z,23.90
2022-09-01T20:57:05.230Z,23.90
2022-09-01T20:59:36.743Z,23.90
2022-09-01T21:02:10.990Z,23.90
2022-09-01T21:04:45.676Z,23.80
2022-09-01T21:07:16.575Z,23.90
2022-09-01T21:09:50.225Z,23.80
2022-09-01T21:12:22.943Z,23.80
2022-09-01T21:14:56.213Z,23.90
2022-09-01T21:17:30.874Z,23.90
2022-09-01T21:20:04.055Z,23.90
2022-09-01T21:22:32.249Z,23.80
2022-09-01T21:25:00.626Z,23.80
2022-09-01T21:27:33.159Z,23.90
2022-09-01T21:30:03.064Z,23.80
2022-09-01T21:32:33.639Z,23.80
2022-09-01T21:35:01.869Z,23.80
2022-09-01T21:37:30.003Z,23.80
2022-09-01T21:39:58.233Z,23.80
2022-09-01T21:42:27.453Z,23.80
2022-09-01T21:44:55.831Z,23.80
2022-09-01T21:47:24.093Z,23.80
2022-09-01T21:49:53.602Z,23.80
2022-09-01T21:52:21.982Z,23.80
2022-09-01T21:54:50.101Z,23.80
2022-09-01T21:57:18.379Z,23.80
2022-09-01T21:59:46.463Z,23.80
2022-09-01T22:02:14.618Z,23.90
2022-09-01T22:04:42.831Z,23.80
2022-09-01T22:07:15.259Z,23.80
2022-09-01T22:09:43.677Z,23.90
2022-09-01T22:12:11.991Z,23.80
2022-09-01T22:14:40.194Z,23.90
2022-09-01T22:17:08.413Z,23.80
2022-09-01T22:19:36.695Z,23.80
2022-09-01T22:22:04.983Z,23.80
2022-09-01T22:24:34.486Z,23.80
2022-09-01T22:27:02.709Z,23.80
2022-09-01T22:29:30.890Z,23.80
2022-09-01T22:32:00.224Z,23.80
2022-09-01T22:34:28.386Z,23.80
2022-09-01T22:36:56.482Z,23.80
2022-09-01T22:39:25.287Z,23.80
2022-09-01T22:41:55.536Z,23.80
2022-09-01T22:44:23.683Z,23.80
2022-09-01T22:46:51.835Z,23.80
2022-09-01T22:49:20.102Z,23.80
2022-09-01T22:51:48.610Z,23.80
2022-09-01T22:54:16.994Z,23.80
2022-09-01T22:56:45.199Z,23.80
2022-09-01T22:59:16.156Z,23.80
2022-09-01T23:01:45.907Z,23.80
2022-09-01T23:04:14.508Z,23.80
2022-09-01T23:06:43.808Z,23.80
2022-09-01T23:09:11.944Z,23.80
2022-09-01T23:11:40.075Z,23.80
2022-09-01T23:14:08.300Z,23.80
2022-09-01T23:16:37.890Z,23.80
2022-09-01T23:19:06.330Z,23.80
2022-09-01T23:21:36.050Z,23.80
2022-09-01T23:24:04.674Z,23.80
2022-09-01T23:26:33.124Z,23.80
2022-09-01T23:29:01.324Z,23.80
2022-09-01T23:31:31.053Z,23.80
2022-09-01T23:34:00.617Z,23.80
2022-09-01T23:36:29.261Z,23.70
2022-09-01T23:38:57.457Z,23.80
2022-09-01T23:41:28.748Z,23.80
2022-09-01T23:43:57.132Z,23.80
2022-09-01T23:46:26.138Z,23.70
2022-09-01T23:48:54.331Z,23.80
2022-09-01T23:51:24.626Z,23.80
2022-09-01T23:53:52.854Z,23.80
2022-09-01T23:56:22.052Z,23.70
2022-09-01T23:58:50.265Z,23.70
